createdAt,value
2022-09-12T00:01:06.018Z,101669.28
2022-09-12T00:04:08.854Z,101673.22
2022-09-12T00:07:12.999Z,101696.09
2022-09-12T00:10:15.752Z,101666.84
2022-09-12T00:13:18.418Z,101677.94
2022-09-12T00:16:23.129Z,101670.94
2022-09-12T00:19:26.160Z,101689.78
2022-09-12T00:22:30.247Z,101612.59
2022-09-12T00:25:32.924Z,101657.50
2022-09-12T00:28:36.392Z,101690.53
2022-09-12T00:31:39.328Z,101670.25
2022-09-12T00:34:42.054Z,101657.25
2022-09-12T00:37:46.697Z,101660.31
2022-09-12T00:40:49.502Z,101680.28
2022-09-12T00:43:53.121Z,101664.91
2022-09-12T00:46:58.227Z,101644.28
2022-09-12T00:50:03.389Z,101628.03
2022-09-12T00:53:07.940Z,101654.84
2022-09-12T00:56:11.285Z,101603.34
2022-09-12T00:59:15.959Z,101592.88
2022-09-12T01:02:18.651Z,101644.38
2022-09-12T01:05:21.293Z,101625.16
2022-09-12T01:08:25.304Z,101604.63
2022-09-12T01:11:27.960Z,101632.25
2022-09-12T01:14:30.844Z,101661.75
2022-09-12T01:17:38.675Z,101624.31
2022-09-12T01:20:49.384Z,101642.63
2022-09-12T01:24:21.581Z,101656.44
2022-09-12T01:27:34.992Z,101567.78
2022-09-12T01:30:47.092Z,101637.69
2022-09-12T01:33:57.287Z,101586.41
2022-09-12T01:37:01.554Z,101550.63
2022-09-12T01:40:05.669Z,101561.44
2022-09-12T01:43:11.309Z,101620.72
2022-09-12T01:46:17.323Z,101636.16
2022-09-12T01:49:22.762Z,101603.56
2022-09-12T01:52:27.098Z,101623.09
2022-09-12T01:55:31.155Z,101542.13
2022-09-12T01:58:36.527Z,101595.88
2022-09-12T02:01:41.999Z,101596.41
2022-09-12T02:04:47.823Z,101576.06
2022-09-12T02:07:52.871Z,101612.22
2022-09-12T02:10:57.436Z,101594.69
2022-09-12T02:14:02.127Z,101565.06
2022-09-12T02:17:08.756Z,101540.13
2022-09-12T02:20:21.355Z,101564.06
2022-09-12T02:23:39.379Z,101501.53
2022-09-12T02:26:44.787Z,101594.03
2022-09-12T02:29:47.366Z,101567.44
2022-09-12T02:32:58.250Z,101572.69
2022-09-12T02:36:04.922Z,101543.28
2022-09-12T02:39:07.579Z,101529.50
2022-09-12T02:42:10.267Z,101588.31
2022-09-12T02:45:13.647Z,101589.56
2022-09-12T02:48:19.572Z,101587.41
2022-09-12T02:51:23.741Z,101597.25
2022-09-12T02:54:26.621Z,101502.34
2022-09-12T02:57:29.282Z,101565.19
2022-09-12T03:00:32.612Z,101543.78
2022-09-12T03:03:48.140Z,101579.75
2022-09-12T03:06:52.789Z,101560.44
2022-09-12T03:09:58.940Z,101542.81
2022-09-12T03:13:06.682Z,101550.69
2022-09-12T03:16:12.974Z,101471.47
2022-09-12T03:19:20.284Z,101568.13
2022-09-12T03:22:23.218Z,101559.41
2022-09-12T03:25:28.250Z,101550.63
2022-09-12T03:28:30.929Z,101513.00
2022-09-12T03:31:33.545Z,101492.75
2022-09-12T03:34:37.646Z,101512.63
2022-09-12T03:37:40.302Z,101453.19
2022-09-12T03:40:43.368Z,101498.31
2022-09-12T03:43:46.110Z,101522.34
2022-09-12T03:46:49.501Z,101485.75
2022-09-12T03:49:53.547Z,101540.59
2022-09-12T03:52:56.231Z,101522.84
2022-09-12T03:55:58.882Z,101559.13
2022-09-12T03:59:01.542Z,101541.47
2022-09-12T04:02:04.609Z,101483.19
2022-09-12T04:05:09.341Z,101532.53
2022-09-12T04:08:11.984Z,101527.44
2022-09-12T04:11:15.991Z,101534.88
2022-09-12T04:14:18.832Z,101548.53
2022-09-12T04:17:21.474Z,101508.84
2022-09-12T04:20:25.515Z,101475.44
2022-09-12T04:23:28.222Z,101516.81
2022-09-12T04:26:31.727Z,101521.50
2022-09-12T04:29:35.625Z,101510.91
2022-09-12T04:32:38.337Z,101527.03
2022-09-12T04:35:42.980Z,101553.34
2022-09-12T04:38:46.224Z,101521.59
2022-09-12T04:41:48.959Z,101542.94
2022-09-12T04:44:52.027Z,101489.91
2022-09-12T04:47:54.684Z,101524.22
2022-09-12T04:51:06.989Z,101549.34
2022-09-12T04:54:11.817Z,101519.31
2022-09-12T04:57:14.446Z,101550.97
2022-09-12T05:00:17.505Z,101486.66
2022-09-12T05:03:20.138Z,101532.63
2022-09-12T05:06:25.421Z,101538.59
2022-09-12T05:09:29.129Z,101471.28
2022-09-12T05:12:32.071Z,101452.44
2022-09-12T05:15:34.735Z,101533.81
2022-09-12T05:18:37.485Z,101542.22
2022-09-12T05:21:41.512Z,101536.44
2022-09-12T05:24:49.849Z,101528.31
2022-09-12T05:27:53.669Z,101490.38
2022-09-12T05:31:01.647Z,101508.94
2022-09-12T05:34:06.977Z,101519.56
2022-09-12T05:37:10.975Z,101495.00
2022-09-12T05:40:17.678Z,101459.69
2022-09-12T05:43:21.279Z,101467.75
2022-09-12T05:46:25.225Z,101492.84
2022-09-12T05:49:27.938Z,101458.81
2022-09-12T05:52:32.973Z,101455.47
2022-09-12T05:55:36.089Z,101543.44
2022-09-12T05:58:39.826Z,101521.44
2022-09-12T06:01:42.773Z,101491.38
2022-09-12T06:04:45.792Z,101522.66
2022-09-12T06:07:49.876Z,101530.84
2022-09-12T06:10:52.601Z,101443.34
2022-09-12T06:13:56.273Z,101523.56
2022-09-12T06:16:58.980Z,101471.31
2022-09-12T06:20:01.875Z,101433.22
2022-09-12T06:23:05.950Z,101446.22
2022-09-12T06:26:09.350Z,101490.53
2022-09-12T06:29:13.341Z,101525.03
2022-09-12T06:32:16.531Z,101466.00
2022-09-12T06:35:19.229Z,101513.00
2022-09-12T06:38:23.336Z,101438.94
2022-09-12T06:41:26.848Z,101491.06
2022-09-12T06:44:29.729Z,101472.16
2022-09-12T06:47:32.956Z,101482.50
2022-09-12T06:50:35.562Z,101494.88
2022-09-12T06:53:39.693Z,101457.13
2022-09-12T06:56:42.405Z,101499.22
2022-09-12T06:59:45.009Z,101495.56
2022-09-12T07:02:47.661Z,101503.31
2022-09-12T07:05:50.291Z,101525.00
2022-09-12T07:08:54.359Z,101528.38
2022-09-12T07:11:56.961Z,101517.38
2022-09-12T07:14:59.606Z,101530.66
2022-09-12T07:18:02.304Z,101471.72
2022-09-12T07:21:05.440Z,101485.34
2022-09-12T07:24:10.243Z,101529.72
2022-09-12T07:27:13.144Z,101537.00
2022-09-12T07:30:16.236Z,101484.56
2022-09-12T07:33:21.021Z,101524.34
2022-09-12T07:36:25.340Z,101513.34
2022-09-12T07:39:29.499Z,101489.50
2022-09-12T07:42:32.243Z,101524.38
2022-09-12T07:45:34.924Z,101521.66
2022-09-12T07:48:37.933Z,101522.22
2022-09-12T07:51:41.128Z,101458.31
2022-09-12T07:54:45.326Z,101517.09
2022-09-12T07:57:50.225Z,101520.00
2022-09-12T08:00:52.999Z,101528.53
2022-09-12T08:03:57.176Z,101517.59
2022-09-12T08:06:59.775Z,101529.78
2022-09-12T08:10:03.749Z,101496.63
2022-09-12T08:13:08.759Z,101526.66
2022-09-12T08:16:13.567Z,101461.56
2022-09-12T08:19:16.182Z,101460.44
2022-09-12T08:22:22.018Z,101540.03
2022-09-12T08:25:26.712Z,101521.06
2022-09-12T08:28:29.337Z,101527.09
2022-09-12T08:31:36.318Z,101496.81
2022-09-12T08:34:38.721Z,101533.16
2022-09-12T08:37:41.344Z,101441.91
2022-09-12T08:40:49.534Z,101469.75
2022-09-12T08:44:05.108Z,101499.22
2022-09-12T08:47:26.886Z,101498.03
2022-09-12T08:50:29.490Z,101524.69
2022-09-12T08:53:32.103Z,101522.66
2022-09-12T08:56:37.699Z,101510.13
2022-09-12T08:59:42.304Z,101531.56
2022-09-12T09:03:18.749Z,101512.97
2022-09-12T09:06:27.624Z,101483.84
2022-09-12T09:09:37.186Z,101506.47
2022-09-12T09:12:45.700Z,101496.72
2022-09-12T09:15:49.998Z,101501.53
2022-09-12T09:18:52.679Z,101501.16
2022-09-12T09:21:57.429Z,101492.59
2022-09-12T09:25:02.324Z,101507.63
2022-09-12T09:28:08.119Z,101470.41
2022-09-12T09:31:15.052Z,101433.31
2022-09-12T09:34:19.682Z,101485.34
2022-09-12T09:37:25.354Z,101445.78
2022-09-12T09:40:30.130Z,101426.22
2022-09-12T09:43:34.115Z,101459.25
2022-09-12T09:46:38.879Z,101462.19
2022-09-12T09:49:41.503Z,101468.97
2022-09-12T09:52:44.192Z,101435.72
2022-09-12T09:55:46.754Z,101478.19
2022-09-12T09:58:50.690Z,101467.09
2022-09-12T10:01:54.744Z,101389.88
2022-09-12T10:04:58.306Z,101446.84
2022-09-12T10:08:00.861Z,101447.81
2022-09-12T10:11:04.306Z,101421.28
2022-09-12T10:14:24.559Z,101453.28
2022-09-12T10:17:33.889Z,101439.50
2022-09-12T10:20:39.983Z,101437.78
2022-09-12T10:23:42.597Z,101406.81
2022-09-12T10:26:45.322Z,101429.09
2022-09-12T10:29:50.427Z,101434.91
2022-09-12T10:32:54.085Z,101442.66
2022-09-12T10:35:56.963Z,101407.75
2022-09-12T10:39:00.612Z,101453.34
2022-09-12T10:42:03.428Z,101441.16
2022-09-12T10:45:21.115Z,101437.38
2022-09-12T10:48:26.431Z,101439.13
2022-09-12T10:51:29.416Z,101386.66
2022-09-12T10:54:31.968Z,101431.88
2022-09-12T10:57:47.797Z,101447.41
2022-09-12T11:00:53.845Z,101446.06
2022-09-12T11:04:06.483Z,101410.13
2022-09-12T11:07:19.589Z,101450.44
2022-09-12T11:10:27.866Z,101433.88
2022-09-12T11:13:40.075Z,101418.84
2022-09-12T11:16:45.768Z,101394.88
2022-09-12T11:20:23.436Z,101411.00
2022-09-12T11:24:02.523Z,101426.88
2022-09-12T11:27:14.104Z,101378.38
2022-09-12T11:30:17.791Z,101430.84
2022-09-12T11:33:27.912Z,101433.91
2022-09-12T11:36:34.203Z,101414.69
2022-09-12T11:39:38.823Z,101428.75
2022-09-12T11:42:41.442Z,101419.81
2022-09-12T11:45:45.190Z,101404.69
2022-09-12T11:48:52.898Z,101400.41
2022-09-12T11:51:57.572Z,101369.19
2022-09-12T11:55:03.812Z,101347.66
2022-09-12T11:58:08.572Z,101350.63
2022-09-12T12:01:13.853Z,101372.81
2022-09-12T12:04:19.554Z,101396.06
2022-09-12T12:07:22.284Z,101322.13
2022-09-12T12:10:27.503Z,101352.94
2022-09-12T12:13:32.366Z,101322.75
2022-09-12T12:16:35.785Z,101310.22
2022-09-12T12:19:39.946Z,101368.22
2022-09-12T12:22:48.500Z,101393.59
2022-09-12T12:25:54.497Z,101377.38
2022-09-12T12:29:01.237Z,101382.34
2022-09-12T12:32:27.582Z,101376.81
2022-09-12T12:35:41.617Z,101320.03
2022-09-12T12:38:44.443Z,101345.09
2022-09-12T12:41:47.357Z,101370.28
2022-09-12T12:44:51.455Z,101347.44
2022-09-12T12:47:54.694Z,101281.78
2022-09-12T12:51:24.603Z,101288.34
2022-09-12T12:54:55.754Z,101365.16
2022-09-12T12:57:58.560Z,101346.34
2022-09-12T13:01:11.081Z,101323.41
2022-09-12T13:04:15.098Z,101331.19
2022-09-12T13:07:26.152Z,101307.94
2022-09-12T13:10:29.820Z,101339.34
2022-09-12T13:13:33.848Z,101346.00
2022-09-12T13:16:37.600Z,101341.28
2022-09-12T13:19:40.382Z,101323.75
2022-09-12T13:22:45.301Z,101320.44
2022-09-12T13:25:47.998Z,101320.91
2022-09-12T13:28:51.504Z,101306.66
2022-09-12T13:31:55.214Z,101241.66
2022-09-12T13:35:04.549Z,101255.25
2022-09-12T13:38:09.880Z,101300.88
2022-09-12T13:41:23.221Z,101238.91
2022-09-12T13:44:26.436Z,101285.09
2022-09-12T13:47:31.817Z,101233.16
2022-09-12T13:50:38.748Z,101220.66
2022-09-12T13:53:44.471Z,101242.41
2022-09-12T13:56:51.011Z,101257.63
2022-09-12T13:59:56.361Z,101277.63
2022-09-12T14:03:12.991Z,101222.91
2022-09-12T14:06:16.581Z,101277.88
2022-09-12T14:09:25.252Z,101279.19
2022-09-12T14:12:30.229Z,101235.47
2022-09-12T14:15:33.895Z,101257.63
2022-09-12T14:18:38.953Z,101276.25
2022-09-12T14:21:41.615Z,101209.56
2022-09-12T14:24:51.720Z,101265.75
2022-09-12T14:27:55.247Z,101285.16
2022-09-12T14:30:59.466Z,101242.84
2022-09-12T14:34:12.898Z,101276.78
2022-09-12T14:37:15.542Z,101267.56
2022-09-12T14:40:21.263Z,101256.88
2022-09-12T14:43:26.242Z,101239.63
2022-09-12T14:46:31.587Z,101222.50
2022-09-12T14:49:35.452Z,101260.25
2022-09-12T14:52:39.052Z,101264.25
2022-09-12T14:55:46.060Z,101257.19
2022-09-12T14:58:48.894Z,101257.91
2022-09-12T15:01:51.517Z,101252.13
2022-09-12T15:04:55.214Z,101247.84
2022-09-12T15:08:01.376Z,101188.06
2022-09-12T15:11:07.295Z,101174.97
2022-09-12T15:14:12.715Z,101242.63
2022-09-12T15:17:15.317Z,101207.66
2022-09-12T15:20:18.029Z,101241.03
2022-09-12T15:23:26.920Z,101208.63
2022-09-12T15:26:31.627Z,101226.75
2022-09-12T15:29:34.353Z,101242.19
2022-09-12T15:32:36.932Z,101182.28
2022-09-12T15:35:39.602Z,101240.81
2022-09-12T15:38:42.188Z,101185.88
2022-09-12T15:41:47.300Z,101209.50
2022-09-12T15:44:49.936Z,101165.03
2022-09-12T15:47:52.588Z,101225.84
2022-09-12T15:50:57.584Z,101193.00
2022-09-12T15:54:00.230Z,101207.97
2022-09-12T15:57:04.165Z,101186.44
2022-09-12T16:00:08.192Z,101205.75
2022-09-12T16:03:17.942Z,101206.72
2022-09-12T16:06:20.543Z,101138.38
2022-09-12T16:09:24.607Z,101152.19
2022-09-12T16:12:28.620Z,101181.75
2022-09-12T16:15:31.293Z,101166.97
2022-09-12T16:18:33.913Z,101117.75
2022-09-12T16:21:36.591Z,101148.09
2022-09-12T16:24:39.303Z,101090.81
2022-09-12T16:27:43.367Z,101109.66
2022-09-12T16:30:46.345Z,101112.00
2022-09-12T16:33:49.017Z,101083.38
2022-09-12T16:36:51.680Z,101165.03
2022-09-12T16:39:54.345Z,101157.72
2022-09-12T16:42:58.368Z,101160.75
2022-09-12T16:46:04.478Z,101156.69
2022-09-12T16:49:07.234Z,101094.06
2022-09-12T16:52:12.437Z,101134.16
2022-09-12T16:55:15.451Z,101149.72
2022-09-12T16:58:19.605Z,101068.72
2022-09-12T17:01:23.408Z,101101.69
2022-09-12T17:04:26.280Z,101132.78
2022-09-12T17:07:29.096Z,101100.81
2022-09-12T17:10:32.712Z,101069.63
2022-09-12T17:14:02.582Z,101099.66
2022-09-12T17:16:59.617Z,101084.13
2022-09-12T17:20:02.635Z,101116.25
2022-09-12T17:23:09.694Z,101072.97
2022-09-12T17:26:12.921Z,101143.59
2022-09-12T17:29:17.169Z,101117.00
2022-09-12T17:32:19.956Z,101063.41
2022-09-12T17:35:23.130Z,101136.84
2022-09-12T17:38:26.054Z,101139.75
2022-09-12T17:41:29.538Z,101136.53
2022-09-12T17:44:35.912Z,101069.28
2022-09-12T17:47:38.653Z,101136.78
2022-09-12T17:50:41.542Z,101128.78
2022-09-12T17:53:44.388Z,101061.47
2022-09-12T17:56:49.008Z,101086.66
2022-09-12T17:59:53.297Z,101083.00
2022-09-12T18:02:55.140Z,101129.78
2022-09-12T18:05:58.060Z,101072.34
2022-09-12T18:09:01.269Z,101096.78
2022-09-12T18:12:04.148Z,101132.88
2022-09-12T18:15:09.932Z,101123.47
2022-09-12T18:18:12.862Z,101118.03
2022-09-12T18:21:15.652Z,101070.56
2022-09-12T18:24:18.959Z,101090.31
2022-09-12T18:27:21.731Z,101031.63
2022-09-12T18:30:25.969Z,101099.13
2022-09-12T18:33:28.750Z,101076.06
2022-09-12T18:36:31.551Z,101101.97
2022-09-12T18:39:34.164Z,101089.84
2022-09-12T18:42:36.741Z,101092.97
2022-09-12T18:45:40.805Z,101093.06
2022-09-12T18:48:44.181Z,101071.41
2022-09-12T18:51:46.784Z,101101.09
2022-09-12T18:54:49.514Z,101101.47
2022-09-12T18:57:52.158Z,101109.13
2022-09-12T19:00:56.183Z,101110.63
2022-09-12T19:03:58.968Z,101071.22
2022-09-12T19:07:02.180Z,101120.28
2022-09-12T19:10:05.092Z,101101.84
2022-09-12T19:13:07.684Z,101135.66
2022-09-12T19:16:13.259Z,101110.78
2022-09-12T19:19:16.061Z,101126.69
2022-09-12T19:22:18.924Z,101072.09
2022-09-12T19:25:21.681Z,101118.75
2022-09-12T19:28:24.347Z,101095.56
2022-09-12T19:31:28.300Z,101113.16
2022-09-12T19:34:30.887Z,101086.41
2022-09-12T19:37:33.459Z,101109.41
2022-09-12T19:40:37.838Z,101103.81
2022-09-12T19:43:42.598Z,101083.38
2022-09-12T19:46:46.616Z,101096.91
2022-09-12T19:49:49.287Z,101091.31
2022-09-12T19:52:51.810Z,101047.66
2022-09-12T19:55:54.384Z,101024.75
2022-09-12T19:58:57.091Z,101066.09
2022-09-12T20:02:01.120Z,101096.19
2022-09-12T20:05:03.925Z,101027.84
2022-09-12T20:08:07.161Z,101088.03
2022-09-12T20:11:09.843Z,101096.53
2022-09-12T20:14:12.446Z,101092.06
2022-09-12T20:17:16.457Z,101100.16
2022-09-12T20:20:19.021Z,101095.78
2022-09-12T20:23:21.662Z,101103.59
2022-09-12T20:26:24.924Z,101051.81
2022-09-12T20:29:27.580Z,101102.13
2022-09-12T20:32:31.541Z,101035.34
2022-09-12T20:35:34.115Z,101085.22
2022-09-12T20:38:36.976Z,101085.31
2022-09-12T20:41:39.570Z,101042.00
2022-09-12T20:44:42.103Z,101072.97
2022-09-12T20:47:45.988Z,101082.59
2022-09-12T20:50:48.580Z,101071.84
2022-09-12T20:53:53.832Z,101069.38
2022-09-12T20:56:56.393Z,101090.34
2022-09-12T20:59:58.991Z,101079.88
2022-09-12T21:03:02.896Z,101069.81
2022-09-12T21:06:06.326Z,101080.72
2022-09-12T21:09:08.971Z,101081.59
2022-09-12T21:12:11.551Z,101081.53
2022-09-12T21:15:14.083Z,101086.34
2022-09-12T21:18:18.040Z,101085.94
2022-09-12T21:21:20.874Z,101083.88
2022-09-12T21:24:23.538Z,101093.50
2022-09-12T21:27:26.121Z,101099.56
2022-09-12T21:30:29.732Z,101099.25
2022-09-12T21:33:33.642Z,101043.44
2022-09-12T21:36:36.203Z,101098.91
2022-09-12T21:39:38.834Z,101042.16
2022-09-12T21:42:41.439Z,101108.16
2022-09-12T21:45:43.973Z,101107.31
2022-09-12T21:48:47.914Z,101104.88
2022-09-12T21:51:51.332Z,101079.50
2022-09-12T21:54:53.879Z,101078.75
2022-09-12T21:57:56.471Z,101063.91
2022-09-12T22:01:00.284Z,101090.06
2022-09-12T22:04:04.567Z,101051.88
2022-09-12T22:07:07.377Z,100993.16
2022-09-12T22:10:10.571Z,101069.22
2022-09-12T22:13:13.087Z,100991.53
2022-09-12T22:16:15.721Z,101074.13
2022-09-12T22:19:19.778Z,101070.09
2022-09-12T22:22:39.977Z,101048.81
2022-09-12T22:25:42.527Z,101060.03
2022-09-12T22:28:45.169Z,101013.41
2022-09-12T22:31:47.756Z,101054.47
2022-09-12T22:34:51.704Z,101023.84
2022-09-12T22:37:54.302Z,101045.13
2022-09-12T22:40:58.494Z,101050.34
2022-09-12T22:44:01.049Z,100971.50
2022-09-12T22:47:03.700Z,101040.66
2022-09-12T22:50:08.841Z,100970.22
2022-09-12T22:53:11.485Z,100969.00
2022-09-12T22:56:14.034Z,100984.69
2022-09-12T22:59:16.755Z,101038.63
2022-09-12T23:02:19.301Z,100973.84
2022-09-12T23:05:23.312Z,100986.69
2022-09-12T23:08:29.361Z,101026.97
2022-09-12T23:11:31.933Z,101001.56
2022-09-12T23:14:34.559Z,101019.69
2022-09-12T23:17:37.083Z,101022.91
2022-09-12T23:20:41.093Z,101026.13
2022-09-12T23:23:43.703Z,101026.13
2022-09-12T23:26:46.273Z,100973.78
2022-09-12T23:29:52.370Z,101012.38
2022-09-12T23:32:55.080Z,101018.81
2022-09-12T23:36:02.126Z,101013.19
2022-09-12T23:39:04.980Z,100997.50
2022-09-12T23:42:07.670Z,100931.16
2022-09-12T23:45:11.095Z,101001.94
2022-09-12T23:48:13.669Z,100977.78
2022-09-12T23:51:18.735Z,100997.13
2022-09-12T23:54:21.315Z,101000.84
2022-09-12T23:57:23.872Z,100924.03
